Pays
Station

 

Conditions  météo  pour  Toledo, Metcalf Field  -  Etats-Unis    Etats-Unis

  
24 °C
    
 
 

METAR pour Toledo, Metcalf Field :

KTDZ 161953Z AUTO 20008KT 5SM -RA BR FEW008 BKN019 OVC030 24/23 A2998 RMK AO2 RAB45 SLP146 P0000 T02390228

 

Voici le bulletin pour Toledo, Metcalf Field - Etats-Unis.
 
Le bulletin a été fait il y a 12 minutes, à 19:53 UTC .
Le vent soufflait à la vitesse de 4.1 mètres par seconde de Sud/Sud-ouest (200°).
 
La température était de 24 °C, avec un point de rosée à 23 °C.
La température ressentie était de 23 °C.
 
La pression atmosphérique était de 1015 hPa.
L'humidité relative était de 94.2%.
 
Il y avait 1 à 2/8ème de nébulosité à une hauteur de 244 mètres et 5 à 7/8ème de nébulosité à une hauteur de 579 mètres. Le ciel était nuageux à partir d'une hauteur de 914 mètres
 
La visibilité globale était de 8.0 kilomètres.
 
Actuellement léger/legère pluie plus brume.

 
 
 

Pays :   A   B   C   D   E   F   G   H   I   J   K   L   M   N   O   P   Q   R   S   T   U   V   W   Y   Z

 

Partenaires :  Info Météo avec Met'info
Météo Marine avec MeteoMarine.net
Infos Site  |  Infos Légales  |  Crédits  |  Confidentialité
Contactez-nous  |  Ajouter aux favoris
© 2013-2018 METAR - Tous droits réservés